TimeCDT,TemperatureF,Dew PointF,Humidity,Sea Level PressureIn,VisibilityMPH,Wind Direction,Wind SpeedMPH,Gust SpeedMPH,PrecipitationIn,Events,Conditions,WindDirDegrees,DateUTC
12:15 AM,41.0,30.2,65,30.06,10.0,Calm,Calm,-,N/A,,Clear,0,2013-03-15 05:15:00
12:35 AM,39.2,30.2,70,30.06,10.0,Calm,Calm,-,N/A,,Clear,0,2013-03-15 05:35:00
12:55 AM,39.2,30.2,70,30.06,10.0,Calm,Calm,-,N/A,,Clear,0,2013-03-15 05:55:00
1:15 AM,39.2,30.2,70,30.05,10.0,Calm,Calm,-,N/A,,Clear,0,2013-03-15 06:15:00
1:35 AM,35.6,28.4,75,30.05,10.0,Calm,Calm,-,N/A,,Clear,0,2013-03-15 06:35:00
2:15 AM,35.6,28.4,75,30.02,10.0,Calm,Calm,-,N/A,,Clear,0,2013-03-15 07:15:00
2:35 AM,35.6,28.4,75,30.01,10.0,Calm,Calm,-,N/A,,Clear,0,2013-03-15 07:35:00
2:55 AM,33.8,24.8,70,30.00,7.0,South,3.5,-,N/A,,Clear,190,2013-03-15 07:55:00
3:15 AM,33.8,26.6,75,30.00,7.0,Calm,Calm,-,N/A,,Clear,0,2013-03-15 08:15:00
3:35 AM,33.8,26.6,75,30.00,10.0,West,5.8,-,N/A,,Clear,260,2013-03-15 08:35:00
4:15 AM,35.6,28.4,75,29.98,7.0,Calm,Calm,-,N/A,,Clear,0,2013-03-15 09:15:00
4:35 AM,35.6,28.4,75,29.98,5.0,West,3.5,-,N/A,,Haze,280,2013-03-15 09:35:00
4:55 AM,35.6,26.6,70,29.98,5.0,Calm,Calm,-,N/A,,Haze,0,2013-03-15 09:55:00
5:15 AM,35.6,28.4,75,29.97,5.0,Calm,Calm,-,N/A,,Haze,0,2013-03-15 10:15:00
5:35 AM,33.8,26.6,75,29.97,5.0,Calm,Calm,-,N/A,,Haze,0,2013-03-15 10:35:00
5:55 AM,33.8,26.6,75,29.96,5.0,Calm,Calm,-,N/A,,Haze,0,2013-03-15 10:55:00
6:15 AM,33.8,26.6,75,29.96,4.0,Calm,Calm,-,N/A,,Haze,0,2013-03-15 11:15:00
6:35 AM,33.8,26.6,75,29.96,4.0,Calm,Calm,-,N/A,,Haze,0,2013-03-15 11:35:00
6:55 AM,30.2,24.8,80,29.96,4.0,Calm,Calm,-,N/A,,Haze,0,2013-03-15 11:55:00
7:15 AM,30.2,24.8,80,29.97,4.0,SW,3.5,-,N/A,,Haze,220,2013-03-15 12:15:00
7:35 AM,32.0,24.8,75,29.96,2.0,Calm,Calm,-,N/A,,Haze,0,2013-03-15 12:35:00
7:55 AM,32.0,24.8,75,29.96,2.0,Calm,Calm,-,N/A,,Haze,0,2013-03-15 12:55:00
8:15 AM,35.6,28.4,75,29.96,2.5,Calm,Calm,-,N/A,,Haze,0,2013-03-15 13:15:00
8:35 AM,37.4,30.2,75,29.97,3.0,Calm,Calm,-,N/A,,Haze,0,2013-03-15 13:35:00
8:55 AM,37.4,30.2,75,29.97,4.0,Calm,Calm,-,N/A,,Haze,0,2013-03-15 13:55:00
9:15 AM,39.2,30.2,70,29.96,4.0,NE,3.5,-,N/A,,Haze,50,2013-03-15 14:15:00
9:35 AM,42.8,32.0,66,29.95,5.0,ENE,3.5,-,N/A,,Haze,60,2013-03-15 14:35:00
10:55 AM,46.4,33.8,62,29.93,7.0,ESE,4.6,-,N/A,,Clear,110,2013-03-15 15:55:00
11:15 AM,48.2,35.6,62,29.92,10.0,ESE,5.8,-,N/A,,Clear,110,2013-03-15 16:15:00
11:35 AM,48.2,35.6,62,29.91,7.0,East,5.8,-,N/A,,Clear,100,2013-03-15 16:35:00
11:55 AM,48.2,35.6,62,29.90,10.0,ESE,3.5,-,N/A,,Clear,110,2013-03-15 16:55:00
12:15 PM,50.0,35.6,58,29.89,10.0,SE,4.6,-,N/A,,Clear,130,2013-03-15 17:15:00
12:35 PM,51.8,35.6,54,29.88,10.0,SSE,6.9,-,N/A,,Clear,160,2013-03-15 17:35:00
12:55 PM,53.6,37.4,54,29.86,10.0,ESE,8.1,-,N/A,,Clear,110,2013-03-15 17:55:00
1:15 PM,53.6,37.4,54,29.85,10.0,SE,6.9,-,N/A,,Clear,140,2013-03-15 18:15:00
1:35 PM,55.4,39.2,54,29.83,10.0,ESE,6.9,-,N/A,,Clear,110,2013-03-15 18:35:00
1:55 PM,55.4,39.2,54,29.81,10.0,ESE,9.2,-,N/A,,Clear,110,2013-03-15 18:55:00
2:15 PM,55.4,39.2,54,29.78,10.0,ESE,8.1,-,N/A,,Clear,120,2013-03-15 19:15:00
2:35 PM,57.2,39.2,51,29.76,10.0,SE,8.1,-,N/A,,Clear,130,2013-03-15 19:35:00
2:55 PM,57.2,42.8,59,29.75,10.0,ESE,9.2,-,N/A,,Clear,120,2013-03-15 19:55:00
3:15 PM,59.0,42.8,55,29.72,10.0,SE,10.4,-,N/A,,Clear,130,2013-03-15 20:15:00
3:35 PM,59.0,42.8,55,29.71,10.0,ESE,8.1,-,N/A,,Clear,110,2013-03-15 20:35:00
3:55 PM,60.8,42.8,52,29.73,10.0,East,6.9,-,N/A,,Clear,90,2013-03-15 20:55:00
4:15 PM,60.8,44.6,55,29.73,10.0,ENE,9.2,-,N/A,,Clear,70,2013-03-15 21:15:00
4:35 PM,59.0,42.8,55,29.73,10.0,ENE,6.9,-,N/A,,Clear,70,2013-03-15 21:35:00
4:55 PM,59.0,42.8,55,29.73,10.0,ENE,6.9,-,N/A,,Clear,70,2013-03-15 21:55:00
5:15 PM,59.0,42.8,55,29.73,10.0,NNE,6.9,-,N/A,,Clear,30,2013-03-15 22:15:00
5:35 PM,57.2,41.0,55,29.71,10.0,East,9.2,-,N/A,,Clear,90,2013-03-15 22:35:00
5:55 PM,55.4,42.8,63,29.68,10.0,East,10.4,-,N/A,,Clear,100,2013-03-15 22:55:00
6:15 PM,55.4,42.8,63,29.69,10.0,ENE,4.6,-,N/A,,Clear,60,2013-03-15 23:15:00
6:35 PM,55.4,41.0,58,29.68,10.0,East,8.1,-,N/A,,Clear,90,2013-03-15 23:35:00
6:55 PM,55.4,42.8,63,29.69,10.0,ENE,8.1,-,N/A,,Clear,60,2013-03-15 23:55:00
7:15 PM,53.6,42.8,67,29.70,10.0,NE,5.8,-,N/A,,Clear,50,2013-03-16 00:15:00
7:35 PM,53.6,41.0,62,29.71,10.0,NE,5.8,-,N/A,,Clear,40,2013-03-16 00:35:00
7:55 PM,51.8,39.2,62,29.71,10.0,NE,6.9,-,N/A,,Clear,50,2013-03-16 00:55:00
8:15 PM,50.0,39.2,66,29.70,10.0,NE,8.1,-,N/A,,Clear,50,2013-03-16 01:15:00
8:35 PM,50.0,37.4,62,29.70,10.0,ENE,6.9,-,N/A,,Clear,60,2013-03-16 01:35:00
8:55 PM,50.0,37.4,62,29.70,10.0,ENE,8.1,-,N/A,,Clear,60,2013-03-16 01:55:00
9:15 PM,50.0,37.4,62,29.70,10.0,ENE,6.9,-,N/A,,Clear,60,2013-03-16 02:15:00
9:35 PM,50.0,37.4,62,29.69,10.0,NE,8.1,-,N/A,,Clear,50,2013-03-16 02:35:00
9:55 PM,48.2,37.4,66,29.69,10.0,ENE,5.8,-,N/A,,Clear,60,2013-03-16 02:55:00
10:15 PM,48.2,37.4,66,29.68,10.0,ENE,4.6,-,N/A,,Clear,60,2013-03-16 03:15:00
10:35 PM,48.2,37.4,66,29.68,10.0,NE,4.6,-,N/A,,Clear,50,2013-03-16 03:35:00
10:55 PM,48.2,37.4,66,29.68,10.0,ENE,3.5,-,N/A,,Clear,60,2013-03-16 03:55:00
11:15 PM,48.2,37.4,66,29.67,10.0,NE,4.6,-,N/A,,Clear,40,2013-03-16 04:15:00
11:35 PM,48.2,37.4,66,29.67,10.0,NE,5.8,-,N/A,,Clear,40,2013-03-16 04:35:00
11:55 PM,48.2,37.4,66,29.66,10.0,NNE,5.8,-,N/A,,Clear,30,2013-03-16 04:55:00